sensor_id;sensor_type;location;lat;lon;timestamp;P1;durP1;ratioP1;P2;durP2;ratioP2
317;SDS011;146;53.448;10.228;2023-06-22T00:01:25;7.03;;;6.33;;
317;SDS011;146;53.448;10.228;2023-06-22T00:03:52;5.80;;;5.33;;
317;SDS011;146;53.448;10.228;2023-06-22T00:06:19;5.73;;;5.23;;
317;SDS011;146;53.448;10.228;2023-06-22T00:08:49;4.93;;;4.63;;
317;SDS011;146;53.448;10.228;2023-06-22T00:11:16;5.47;;;5.03;;
317;SDS011;146;53.448;10.228;2023-06-22T00:13:48;5.77;;;5.27;;
317;SDS011;146;53.448;10.228;2023-06-22T00:16:20;5.83;;;5.40;;
317;SDS011;146;53.448;10.228;2023-06-22T00:18:47;5.10;;;4.80;;
317;SDS011;146;53.448;10.228;2023-06-22T00:21:17;5.47;;;5.03;;
317;SDS011;146;53.448;10.228;2023-06-22T00:23:57;4.90;;;4.60;;
317;SDS011;146;53.448;10.228;2023-06-22T00:26:24;4.87;;;4.57;;
317;SDS011;146;53.448;10.228;2023-06-22T00:28:50;5.63;;;5.20;;
317;SDS011;146;53.448;10.228;2023-06-22T00:31:21;6.77;;;5.73;;
317;SDS011;146;53.448;10.228;2023-06-22T00:33:48;5.10;;;4.70;;
317;SDS011;146;53.448;10.228;2023-06-22T00:36:24;5.80;;;5.40;;
317;SDS011;146;53.448;10.228;2023-06-22T00:38:51;6.30;;;5.80;;
317;SDS011;146;53.448;10.228;2023-06-22T00:41:21;4.60;;;4.20;;
317;SDS011;146;53.448;10.228;2023-06-22T00:43:47;5.37;;;4.97;;
317;SDS011;146;53.448;10.228;2023-06-22T00:46:14;4.43;;;4.13;;
317;SDS011;146;53.448;10.228;2023-06-22T00:48:51;4.90;;;4.60;;
317;SDS011;146;53.448;10.228;2023-06-22T00:51:22;5.83;;;5.43;;
317;SDS011;146;53.448;10.228;2023-06-22T00:53:55;5.67;;;5.23;;
317;SDS011;146;53.448;10.228;2023-06-22T00:56:25;5.20;;;4.80;;
317;SDS011;146;53.448;10.228;2023-06-22T00:58:55;4.90;;;4.50;;
317;SDS011;146;53.448;10.228;2023-06-22T01:01:25;5.23;;;4.90;;
317;SDS011;146;53.448;10.228;2023-06-22T01:03:54;4.93;;;4.63;;
317;SDS011;146;53.448;10.228;2023-06-22T01:06:25;5.20;;;4.80;;
317;SDS011;146;53.448;10.228;2023-06-22T01:09:06;7.00;;;5.70;;
317;SDS011;146;53.448;10.228;2023-06-22T01:11:54;6.03;;;5.63;;
317;SDS011;146;53.448;10.228;2023-06-22T01:14:35;5.20;;;4.90;;
317;SDS011;146;53.448;10.228;2023-06-22T01:17:07;6.80;;;6.20;;
317;SDS011;146;53.448;10.228;2023-06-22T01:19:37;6.10;;;5.60;;
317;SDS011;146;53.448;10.228;2023-06-22T01:22:13;6.30;;;5.80;;
317;SDS011;146;53.448;10.228;2023-06-22T01:24:55;6.67;;;6.17;;
317;SDS011;146;53.448;10.228;2023-06-22T01:27:47;7.30;;;6.80;;
317;SDS011;146;53.448;10.228;2023-06-22T01:30:32;7.43;;;6.70;;
317;SDS011;146;53.448;10.228;2023-06-22T01:33:00;6.90;;;6.40;;
317;SDS011;146;53.448;10.228;2023-06-22T01:35:33;6.23;;;5.83;;
317;SDS011;146;53.448;10.228;2023-06-22T01:38:06;7.53;;;7.03;;
317;SDS011;146;53.448;10.228;2023-06-22T01:40:37;8.47;;;7.67;;
317;SDS011;146;53.448;10.228;2023-06-22T01:43:10;7.40;;;6.80;;
317;SDS011;146;53.448;10.228;2023-06-22T01:45:42;7.27;;;6.77;;
317;SDS011;146;53.448;10.228;2023-06-22T01:48:09;6.23;;;5.83;;
317;SDS011;146;53.448;10.228;2023-06-22T01:50:39;7.60;;;7.07;;
317;SDS011;146;53.448;10.228;2023-06-22T01:53:06;6.40;;;5.83;;
317;SDS011;146;53.448;10.228;2023-06-22T01:55:36;6.30;;;5.90;;
317;SDS011;146;53.448;10.228;2023-06-22T01:58:03;7.33;;;6.80;;
317;SDS011;146;53.448;10.228;2023-06-22T02:00:45;6.27;;;5.80;;
317;SDS011;146;53.448;10.228;2023-06-22T02:03:21;6.53;;;6.03;;
317;SDS011;146;53.448;10.228;2023-06-22T02:05:56;7.40;;;6.20;;
317;SDS011;146;53.448;10.228;2023-06-22T02:08:29;7.07;;;6.50;;
317;SDS011;146;53.448;10.228;2023-06-22T02:11:01;8.53;;;7.93;;
317;SDS011;146;53.448;10.228;2023-06-22T02:13:29;7.13;;;6.70;;
317;SDS011;146;53.448;10.228;2023-06-22T02:15:59;6.87;;;6.37;;
317;SDS011;146;53.448;10.228;2023-06-22T02:18:27;7.73;;;7.13;;
317;SDS011;146;53.448;10.228;2023-06-22T02:20:56;6.97;;;6.47;;
317;SDS011;146;53.448;10.228;2023-06-22T02:23:27;6.50;;;6.00;;
317;SDS011;146;53.448;10.228;2023-06-22T02:26:00;7.77;;;7.17;;
317;SDS011;146;53.448;10.228;2023-06-22T02:28:32;6.63;;;6.20;;
317;SDS011;146;53.448;10.228;2023-06-22T02:31:00;7.47;;;6.90;;
317;SDS011;146;53.448;10.228;2023-06-22T02:33:27;6.97;;;6.37;;
317;SDS011;146;53.448;10.228;2023-06-22T02:35:54;7.17;;;6.67;;
317;SDS011;146;53.448;10.228;2023-06-22T02:38:24;7.77;;;7.27;;
317;SDS011;146;53.448;10.228;2023-06-22T02:40:51;8.30;;;7.50;;
317;SDS011;146;53.448;10.228;2023-06-22T02:43:18;6.50;;;6.10;;
317;SDS011;146;53.448;10.228;2023-06-22T02:45:50;8.00;;;7.40;;
317;SDS011;146;53.448;10.228;2023-06-22T02:48:24;8.23;;;7.33;;
317;SDS011;146;53.448;10.228;2023-06-22T02:50:57;8.10;;;7.40;;
317;SDS011;146;53.448;10.228;2023-06-22T02:53:27;7.83;;;7.23;;
317;SDS011;146;53.448;10.228;2023-06-22T02:55:54;7.17;;;6.67;;
317;SDS011;146;53.448;10.228;2023-06-22T02:58:27;7.33;;;6.73;;
317;SDS011;146;53.448;10.228;2023-06-22T03:00:57;9.63;;;7.37;;
317;SDS011;146;53.448;10.228;2023-06-22T03:03:39;7.90;;;7.30;;
317;SDS011;146;53.448;10.228;2023-06-22T03:06:12;8.97;;;8.27;;
317;SDS011;146;53.448;10.228;2023-06-22T03:08:43;7.93;;;7.40;;
317;SDS011;146;53.448;10.228;2023-06-22T03:11:15;7.70;;;7.10;;
317;SDS011;146;53.448;10.228;2023-06-22T03:13:45;7.83;;;7.33;;
317;SDS011;146;53.448;10.228;2023-06-22T03:16:12;9.03;;;8.23;;
317;SDS011;146;53.448;10.228;2023-06-22T03:18:54;7.33;;;6.73;;
317;SDS011;146;53.448;10.228;2023-06-22T03:21:22;8.43;;;7.93;;
317;SDS011;146;53.448;10.228;2023-06-22T03:23:52;7.43;;;6.83;;
317;SDS011;146;53.448;10.228;2023-06-22T03:26:25;7.70;;;7.10;;
317;SDS011;146;53.448;10.228;2023-06-22T03:28:52;8.63;;;7.73;;
317;SDS011;146;53.448;10.228;2023-06-22T03:31:19;8.40;;;7.77;;
317;SDS011;146;53.448;10.228;2023-06-22T03:33:46;8.73;;;8.03;;
317;SDS011;146;53.448;10.228;2023-06-22T03:36:23;8.77;;;8.10;;
317;SDS011;146;53.448;10.228;2023-06-22T03:38:51;8.33;;;7.73;;
317;SDS011;146;53.448;10.228;2023-06-22T03:41:18;8.37;;;7.77;;
317;SDS011;146;53.448;10.228;2023-06-22T03:43:47;8.00;;;7.50;;
317;SDS011;146;53.448;10.228;2023-06-22T03:46:20;8.27;;;7.67;;
317;SDS011;146;53.448;10.228;2023-06-22T03:48:56;7.33;;;6.90;;
317;SDS011;146;53.448;10.228;2023-06-22T03:51:24;8.30;;;7.60;;
317;SDS011;146;53.448;10.228;2023-06-22T03:53:53;8.80;;;8.00;;
317;SDS011;146;53.448;10.228;2023-06-22T03:56:20;7.27;;;6.67;;
317;SDS011;146;53.448;10.228;2023-06-22T03:58:53;7.70;;;7.20;;
317;SDS011;146;53.448;10.228;2023-06-22T04:01:23;8.57;;;7.77;;
317;SDS011;146;53.448;10.228;2023-06-22T04:03:50;8.73;;;8.03;;
317;SDS011;146;53.448;10.228;2023-06-22T04:06:19;9.13;;;8.43;;
317;SDS011;146;53.448;10.228;2023-06-22T04:08:50;9.87;;;8.97;;
317;SDS011;146;53.448;10.228;2023-06-22T04:11:20;10.83;;;9.93;;
317;SDS011;146;53.448;10.228;2023-06-22T04:13:51;10.80;;;10.10;;
317;SDS011;146;53.448;10.228;2023-06-22T04:16:18;10.83;;;10.03;;
317;SDS011;146;53.448;10.228;2023-06-22T04:18:45;10.83;;;10.03;;
317;SDS011;146;53.448;10.228;2023-06-22T04:21:15;10.43;;;9.63;;
317;SDS011;146;53.448;10.228;2023-06-22T04:23:55;11.00;;;10.20;;
317;SDS011;146;53.448;10.228;2023-06-22T04:26:22;9.37;;;8.67;;
317;SDS011;146;53.448;10.228;2023-06-22T04:28:51;10.80;;;9.90;;
317;SDS011;146;53.448;10.228;2023-06-22T04:31:21;10.20;;;9.40;;
317;SDS011;146;53.448;10.228;2023-06-22T04:33:57;10.27;;;9.40;;
317;SDS011;146;53.448;10.228;2023-06-22T04:36:34;10.40;;;9.67;;
317;SDS011;146;53.448;10.228;2023-06-22T04:39:08;11.57;;;10.60;;
317;SDS011;146;53.448;10.228;2023-06-22T04:41:42;9.60;;;8.90;;
317;SDS011;146;53.448;10.228;2023-06-22T04:44:18;10.00;;;9.20;;
317;SDS011;146;53.448;10.228;2023-06-22T04:46:50;10.60;;;9.90;;
317;SDS011;146;53.448;10.228;2023-06-22T04:49:21;9.17;;;8.47;;
317;SDS011;146;53.448;10.228;2023-06-22T04:51:57;9.30;;;8.50;;
317;SDS011;146;53.448;10.228;2023-06-22T04:54:26;8.50;;;7.80;;
317;SDS011;146;53.448;10.228;2023-06-22T04:56:56;8.60;;;7.90;;
317;SDS011;146;53.448;10.228;2023-06-22T04:59:23;7.50;;;6.93;;
317;SDS011;146;53.448;10.228;2023-06-22T05:01:57;8.80;;;7.70;;
317;SDS011;146;53.448;10.228;2023-06-22T05:04:27;7.20;;;6.60;;
317;SDS011;146;53.448;10.228;2023-06-22T05:06:56;7.17;;;6.53;;
317;SDS011;146;53.448;10.228;2023-06-22T05:09:24;7.73;;;6.93;;
317;SDS011;146;53.448;10.228;2023-06-22T05:11:52;7.37;;;6.77;;
317;SDS011;146;53.448;10.228;2023-06-22T05:14:19;7.30;;;6.70;;
317;SDS011;146;53.448;10.228;2023-06-22T05:16:58;7.27;;;6.67;;
317;SDS011;146;53.448;10.228;2023-06-22T05:19:29;7.20;;;6.60;;
317;SDS011;146;53.448;10.228;2023-06-22T05:21:58;7.10;;;6.40;;
317;SDS011;146;53.448;10.228;2023-06-22T05:24:35;6.20;;;5.63;;
317;SDS011;146;53.448;10.228;2023-06-22T05:27:05;7.30;;;6.70;;
317;SDS011;146;53.448;10.228;2023-06-22T05:29:41;6.03;;;5.53;;
317;SDS011;146;53.448;10.228;2023-06-22T05:32:17;6.93;;;6.43;;
317;SDS011;146;53.448;10.228;2023-06-22T05:34:50;7.37;;;6.23;;
317;SDS011;146;53.448;10.228;2023-06-22T05:37:23;7.00;;;6.40;;
317;SDS011;146;53.448;10.228;2023-06-22T05:39:54;6.97;;;6.47;;
317;SDS011;146;53.448;10.228;2023-06-22T05:42:25;6.33;;;5.73;;
317;SDS011;146;53.448;10.228;2023-06-22T05:44:57;6.33;;;5.83;;
317;SDS011;146;53.448;10.228;2023-06-22T05:47:24;6.70;;;6.10;;
317;SDS011;146;53.448;10.228;2023-06-22T05:49:51;7.00;;;6.27;;
317;SDS011;146;53.448;10.228;2023-06-22T05:52:20;5.97;;;5.57;;
317;SDS011;146;53.448;10.228;2023-06-22T05:54:57;5.53;;;5.03;;
317;SDS011;146;53.448;10.228;2023-06-22T05:57:24;6.43;;;5.93;;
317;SDS011;146;53.448;10.228;2023-06-22T05:59:51;5.73;;;5.30;;
317;SDS011;146;53.448;10.228;2023-06-22T06:02:20;7.20;;;6.60;;
317;SDS011;146;53.448;10.228;2023-06-22T06:04:47;7.10;;;5.97;;
317;SDS011;146;53.448;10.228;2023-06-22T06:07:17;6.93;;;6.43;;
317;SDS011;146;53.448;10.228;2023-06-22T06:09:47;6.33;;;5.83;;
317;SDS011;146;53.448;10.228;2023-06-22T06:12:18;5.73;;;5.30;;
317;SDS011;146;53.448;10.228;2023-06-22T06:14:48;5.97;;;5.57;;
317;SDS011;146;53.448;10.228;2023-06-22T06:17:16;6.07;;;5.67;;
317;SDS011;146;53.448;10.228;2023-06-22T06:19:45;5.70;;;5.20;;
317;SDS011;146;53.448;10.228;2023-06-22T06:22:12;5.00;;;4.60;;
317;SDS011;146;53.448;10.228;2023-06-22T06:24:45;5.73;;;5.23;;
317;SDS011;146;53.448;10.228;2023-06-22T06:27:12;6.40;;;5.80;;
317;SDS011;146;53.448;10.228;2023-06-22T06:29:44;5.47;;;5.07;;
317;SDS011;146;53.448;10.228;2023-06-22T06:32:13;5.90;;;5.40;;
317;SDS011;146;53.448;10.228;2023-06-22T06:34:49;5.83;;;5.30;;
317;SDS011;146;53.448;10.228;2023-06-22T06:37:21;5.03;;;4.63;;
317;SDS011;146;53.448;10.228;2023-06-22T06:39:51;5.90;;;5.40;;
317;SDS011;146;53.448;10.228;2023-06-22T06:42:21;4.73;;;4.33;;
317;SDS011;146;53.448;10.228;2023-06-22T06:44:50;4.57;;;4.17;;
317;SDS011;146;53.448;10.228;2023-06-22T06:47:24;6.53;;;4.80;;
317;SDS011;146;53.448;10.228;2023-06-22T06:49:59;4.53;;;4.23;;
317;SDS011;146;53.448;10.228;2023-06-22T06:52:26;5.40;;;4.90;;
317;SDS011;146;53.448;10.228;2023-06-22T06:54:58;5.07;;;4.67;;
317;SDS011;146;53.448;10.228;2023-06-22T06:57:25;4.53;;;4.10;;
317;SDS011;146;53.448;10.228;2023-06-22T06:59:57;5.40;;;4.90;;
317;SDS011;146;53.448;10.228;2023-06-22T07:02:25;5.40;;;4.90;;
317;SDS011;146;53.448;10.228;2023-06-22T07:04:53;4.40;;;4.00;;
317;SDS011;146;53.448;10.228;2023-06-22T07:07:23;4.77;;;4.37;;
317;SDS011;146;53.448;10.228;2023-06-22T07:09:50;5.10;;;4.70;;
317;SDS011;146;53.448;10.228;2023-06-22T07:12:17;4.73;;;4.40;;
317;SDS011;146;53.448;10.228;2023-06-22T07:14:44;4.77;;;4.33;;
317;SDS011;146;53.448;10.228;2023-06-22T07:17:18;4.47;;;4.07;;
317;SDS011;146;53.448;10.228;2023-06-22T07:19:48;4.60;;;4.20;;
317;SDS011;146;53.448;10.228;2023-06-22T07:22:19;5.10;;;4.70;;
317;SDS011;146;53.448;10.228;2023-06-22T07:24:46;7.40;;;5.03;;
317;SDS011;146;53.448;10.228;2023-06-22T07:27:25;4.90;;;4.43;;
317;SDS011;146;53.448;10.228;2023-06-22T07:29:55;4.30;;;4.00;;
317;SDS011;146;53.448;10.228;2023-06-22T07:32:26;4.00;;;3.60;;
317;SDS011;146;53.448;10.228;2023-06-22T07:34:53;4.90;;;4.50;;
317;SDS011;146;53.448;10.228;2023-06-22T07:37:25;4.40;;;4.10;;
317;SDS011;146;53.448;10.228;2023-06-22T07:39:53;4.20;;;3.90;;
317;SDS011;146;53.448;10.228;2023-06-22T07:42:24;4.50;;;4.10;;
317;SDS011;146;53.448;10.228;2023-06-22T07:44:56;4.93;;;4.40;;
317;SDS011;146;53.448;10.228;2023-06-22T07:47:23;3.77;;;3.47;;
317;SDS011;146;53.448;10.228;2023-06-22T07:49:53;4.67;;;4.30;;
317;SDS011;146;53.448;10.228;2023-06-22T07:52:22;4.17;;;3.87;;
317;SDS011;146;53.448;10.228;2023-06-22T07:54:52;3.40;;;3.20;;
317;SDS011;146;53.448;10.228;2023-06-22T07:58:00;4.10;;;3.73;;
317;SDS011;146;53.448;10.228;2023-06-22T08:00:26;4.13;;;3.73;;
317;SDS011;146;53.448;10.228;2023-06-22T08:02:58;4.10;;;3.80;;
317;SDS011;146;53.448;10.228;2023-06-22T08:05:27;3.73;;;3.43;;
317;SDS011;146;53.448;10.228;2023-06-22T08:07:57;3.77;;;3.47;;
317;SDS011;146;53.448;10.228;2023-06-22T08:10:27;4.10;;;3.90;;
317;SDS011;146;53.448;10.228;2023-06-22T08:12:54;4.30;;;4.00;;
317;SDS011;146;53.448;10.228;2023-06-22T08:15:25;4.23;;;3.93;;
317;SDS011;146;53.448;10.228;2023-06-22T08:17:57;4.47;;;4.07;;
317;SDS011;146;53.448;10.228;2023-06-22T08:20:25;4.23;;;3.93;;
317;SDS011;146;53.448;10.228;2023-06-22T08:22:57;3.97;;;3.70;;
317;SDS011;146;53.448;10.228;2023-06-22T08:25:33;4.07;;;3.77;;
317;SDS011;146;53.448;10.228;2023-06-22T08:28:00;4.50;;;4.10;;
317;SDS011;146;53.448;10.228;2023-06-22T08:30:27;3.70;;;3.40;;
317;SDS011;146;53.448;10.228;2023-06-22T08:32:58;4.50;;;3.70;;
317;SDS011;146;53.448;10.228;2023-06-22T08:35:25;3.63;;;3.40;;
317;SDS011;146;53.448;10.228;2023-06-22T08:37:54;4.43;;;4.03;;
317;SDS011;146;53.448;10.228;2023-06-22T08:40:22;4.10;;;3.77;;
317;SDS011;146;53.448;10.228;2023-06-22T08:42:49;4.00;;;3.70;;
317;SDS011;146;53.448;10.228;2023-06-22T08:45:16;4.03;;;3.80;;
317;SDS011;146;53.448;10.228;2023-06-22T08:47:49;4.30;;;3.93;;
317;SDS011;146;53.448;10.228;2023-06-22T08:50:17;4.70;;;3.87;;
317;SDS011;146;53.448;10.228;2023-06-22T08:52:50;4.13;;;3.83;;
317;SDS011;146;53.448;10.228;2023-06-22T08:55:20;4.10;;;3.80;;
317;SDS011;146;53.448;10.228;2023-06-22T08:57:46;4.30;;;3.90;;
317;SDS011;146;53.448;10.228;2023-06-22T09:00:17;4.40;;;4.10;;
317;SDS011;146;53.448;10.228;2023-06-22T09:02:46;4.43;;;3.40;;
317;SDS011;146;53.448;10.228;2023-06-22T09:05:24;3.90;;;3.50;;
317;SDS011;146;53.448;10.228;2023-06-22T09:07:51;4.10;;;3.70;;
317;SDS011;146;53.448;10.228;2023-06-22T09:10:19;4.40;;;4.00;;
317;SDS011;146;53.448;10.228;2023-06-22T09:12:52;4.50;;;4.00;;
317;SDS011;146;53.448;10.228;2023-06-22T09:15:22;3.47;;;3.27;;
317;SDS011;146;53.448;10.228;2023-06-22T09:17:48;4.40;;;4.10;;
317;SDS011;146;53.448;10.228;2023-06-22T09:20:23;4.33;;;3.93;;
317;SDS011;146;53.448;10.228;2023-06-22T09:22:50;4.30;;;3.57;;
317;SDS011;146;53.448;10.228;2023-06-22T09:25:20;3.90;;;3.60;;
317;SDS011;146;53.448;10.228;2023-06-22T09:27:49;8.73;;;3.87;;
317;SDS011;146;53.448;10.228;2023-06-22T09:30:20;3.93;;;3.60;;
317;SDS011;146;53.448;10.228;2023-06-22T09:32:55;4.00;;;3.70;;
317;SDS011;146;53.448;10.228;2023-06-22T09:35:26;3.70;;;3.43;;
317;SDS011;146;53.448;10.228;2023-06-22T09:37:53;3.30;;;3.10;;
317;SDS011;146;53.448;10.228;2023-06-22T09:40:23;4.13;;;3.73;;
317;SDS011;146;53.448;10.228;2023-06-22T09:42:52;4.57;;;4.20;;
317;SDS011;146;53.448;10.228;2023-06-22T09:45:18;4.10;;;3.80;;
317;SDS011;146;53.448;10.228;2023-06-22T09:47:48;4.30;;;3.90;;
317;SDS011;146;53.448;10.228;2023-06-22T09:50:18;6.17;;;4.60;;
317;SDS011;146;53.448;10.228;2023-06-22T09:52:51;4.73;;;4.43;;
317;SDS011;146;53.448;10.228;2023-06-22T09:55:25;5.20;;;4.80;;
317;SDS011;146;53.448;10.228;2023-06-22T09:57:55;3.87;;;3.67;;
317;SDS011;146;53.448;10.228;2023-06-22T10:00:28;4.67;;;4.37;;
317;SDS011;146;53.448;10.228;2023-06-22T10:02:55;5.03;;;4.63;;
317;SDS011;146;53.448;10.228;2023-06-22T10:05:25;4.40;;;4.10;;
317;SDS011;146;53.448;10.228;2023-06-22T10:07:56;4.20;;;3.90;;
317;SDS011;146;53.448;10.228;2023-06-22T10:10:29;4.57;;;4.17;;
317;SDS011;146;53.448;10.228;2023-06-22T10:12:56;4.57;;;4.27;;
317;SDS011;146;53.448;10.228;2023-06-22T10:15:30;4.37;;;4.07;;
317;SDS011;146;53.448;10.228;2023-06-22T10:17:57;4.50;;;4.27;;
317;SDS011;146;53.448;10.228;2023-06-22T10:20:27;4.13;;;3.83;;
317;SDS011;146;53.448;10.228;2023-06-22T10:22:58;4.47;;;4.17;;
317;SDS011;146;53.448;10.228;2023-06-22T10:25:25;4.67;;;4.37;;
317;SDS011;146;53.448;10.228;2023-06-22T10:27:55;5.10;;;4.80;;
317;SDS011;146;53.448;10.228;2023-06-22T10:30:26;4.13;;;3.80;;
317;SDS011;146;53.448;10.228;2023-06-22T10:32:55;4.70;;;4.40;;
317;SDS011;146;53.448;10.228;2023-06-22T10:35:28;4.73;;;4.37;;
317;SDS011;146;53.448;10.228;2023-06-22T10:37:59;4.30;;;4.00;;
317;SDS011;146;53.448;10.228;2023-06-22T10:40:26;5.07;;;4.77;;
317;SDS011;146;53.448;10.228;2023-06-22T10:42:53;5.47;;;5.03;;
317;SDS011;146;53.448;10.228;2023-06-22T10:45:26;4.53;;;4.23;;
317;SDS011;146;53.448;10.228;2023-06-22T10:47:53;6.20;;;5.53;;
317;SDS011;146;53.448;10.228;2023-06-22T10:50:20;6.00;;;5.60;;
317;SDS011;146;53.448;10.228;2023-06-22T10:52:55;5.27;;;4.97;;
317;SDS011;146;53.448;10.228;2023-06-22T10:55:26;5.17;;;4.87;;
317;SDS011;146;53.448;10.228;2023-06-22T10:57:59;6.23;;;5.67;;
317;SDS011;146;53.448;10.228;2023-06-22T11:00:26;5.93;;;5.53;;
317;SDS011;146;53.448;10.228;2023-06-22T11:02:52;5.77;;;5.13;;
317;SDS011;146;53.448;10.228;2023-06-22T11:05:19;5.03;;;4.70;;
317;SDS011;146;53.448;10.228;2023-06-22T11:07:46;5.63;;;5.23;;
317;SDS011;146;53.448;10.228;2023-06-22T11:10:16;6.20;;;5.40;;
317;SDS011;146;53.448;10.228;2023-06-22T11:12:42;6.87;;;6.27;;
317;SDS011;146;53.448;10.228;2023-06-22T11:15:09;6.73;;;6.23;;
317;SDS011;146;53.448;10.228;2023-06-22T11:17:36;5.73;;;5.33;;
317;SDS011;146;53.448;10.228;2023-06-22T11:20:04;6.27;;;5.67;;
317;SDS011;146;53.448;10.228;2023-06-22T11:22:35;6.40;;;6.00;;
317;SDS011;146;53.448;10.228;2023-06-22T11:25:05;6.40;;;6.00;;
317;SDS011;146;53.448;10.228;2023-06-22T11:27:40;6.87;;;5.77;;
317;SDS011;146;53.448;10.228;2023-06-22T11:30:08;5.50;;;5.13;;
317;SDS011;146;53.448;10.228;2023-06-22T11:32:35;6.13;;;5.60;;
317;SDS011;146;53.448;10.228;2023-06-22T11:35:11;5.50;;;5.10;;
317;SDS011;146;53.448;10.228;2023-06-22T11:37:38;6.10;;;5.80;;
317;SDS011;146;53.448;10.228;2023-06-22T11:40:08;5.37;;;4.97;;
317;SDS011;146;53.448;10.228;2023-06-22T11:42:35;5.30;;;4.90;;
317;SDS011;146;53.448;10.228;2023-06-22T11:45:04;5.70;;;5.30;;
317;SDS011;146;53.448;10.228;2023-06-22T11:47:32;5.83;;;5.50;;
317;SDS011;146;53.448;10.228;2023-06-22T11:50:05;6.93;;;6.40;;
317;SDS011;146;53.448;10.228;2023-06-22T11:52:38;6.27;;;5.73;;
317;SDS011;146;53.448;10.228;2023-06-22T11:55:06;5.97;;;5.57;;
317;SDS011;146;53.448;10.228;2023-06-22T11:57:36;5.97;;;5.53;;
317;SDS011;146;53.448;10.228;2023-06-22T12:00:23;6.33;;;5.93;;
317;SDS011;146;53.448;10.228;2023-06-22T12:02:50;6.30;;;5.90;;
317;SDS011;146;53.448;10.228;2023-06-22T12:05:20;6.43;;;5.80;;
317;SDS011;146;53.448;10.228;2023-06-22T12:07:49;7.20;;;5.57;;
317;SDS011;146;53.448;10.228;2023-06-22T12:10:19;6.37;;;5.97;;
317;SDS011;146;53.448;10.228;2023-06-22T12:12:47;5.83;;;5.43;;
317;SDS011;146;53.448;10.228;2023-06-22T12:15:17;6.27;;;5.83;;
317;SDS011;146;53.448;10.228;2023-06-22T12:17:53;6.10;;;5.70;;
317;SDS011;146;53.448;10.228;2023-06-22T12:20:37;6.03;;;5.63;;
317;SDS011;146;53.448;10.228;2023-06-22T12:23:03;6.10;;;5.70;;
317;SDS011;146;53.448;10.228;2023-06-22T12:25:33;6.13;;;5.73;;
317;SDS011;146;53.448;10.228;2023-06-22T12:28:04;6.40;;;5.90;;
317;SDS011;146;53.448;10.228;2023-06-22T12:30:34;5.80;;;5.40;;
317;SDS011;146;53.448;10.228;2023-06-22T12:33:01;7.87;;;7.17;;
317;SDS011;146;53.448;10.228;2023-06-22T12:35:27;6.97;;;6.37;;
317;SDS011;146;53.448;10.228;2023-06-22T12:37:54;6.27;;;5.80;;
317;SDS011;146;53.448;10.228;2023-06-22T12:40:21;7.07;;;6.67;;
317;SDS011;146;53.448;10.228;2023-06-22T12:42:48;6.40;;;5.90;;
317;SDS011;146;53.448;10.228;2023-06-22T12:45:16;7.20;;;6.80;;
317;SDS011;146;53.448;10.228;2023-06-22T12:47:43;7.60;;;7.10;;
317;SDS011;146;53.448;10.228;2023-06-22T12:50:10;7.03;;;6.53;;
317;SDS011;146;53.448;10.228;2023-06-22T12:52:40;7.10;;;6.60;;
317;SDS011;146;53.448;10.228;2023-06-22T12:55:07;7.50;;;7.00;;
317;SDS011;146;53.448;10.228;2023-06-22T12:57:36;7.50;;;6.90;;
317;SDS011;146;53.448;10.228;2023-06-22T13:00:04;7.50;;;7.00;;
317;SDS011;146;53.448;10.228;2023-06-22T13:02:34;6.50;;;6.00;;
317;SDS011;146;53.448;10.228;2023-06-22T13:05:02;8.77;;;6.10;;
317;SDS011;146;53.448;10.228;2023-06-22T13:07:30;7.37;;;6.73;;
317;SDS011;146;53.448;10.228;2023-06-22T13:09:58;7.20;;;6.60;;
317;SDS011;146;53.448;10.228;2023-06-22T13:12:25;7.20;;;6.80;;
317;SDS011;146;53.448;10.228;2023-06-22T13:14:51;7.40;;;6.77;;
317;SDS011;146;53.448;10.228;2023-06-22T13:17:18;7.00;;;6.47;;
317;SDS011;146;53.448;10.228;2023-06-22T13:19:46;7.50;;;7.00;;
317;SDS011;146;53.448;10.228;2023-06-22T13:22:29;6.97;;;6.57;;
317;SDS011;146;53.448;10.228;2023-06-22T13:24:57;7.40;;;6.90;;
317;SDS011;146;53.448;10.228;2023-06-22T13:27:25;6.57;;;5.90;;
317;SDS011;146;53.448;10.228;2023-06-22T13:29:57;6.57;;;6.17;;
317;SDS011;146;53.448;10.228;2023-06-22T13:32:27;7.90;;;7.30;;
317;SDS011;146;53.448;10.228;2023-06-22T13:34:58;7.17;;;6.77;;
317;SDS011;146;53.448;10.228;2023-06-22T13:37:25;6.70;;;6.30;;
317;SDS011;146;53.448;10.228;2023-06-22T13:39:55;7.00;;;6.60;;
317;SDS011;146;53.448;10.228;2023-06-22T13:42:27;5.93;;;5.53;;
317;SDS011;146;53.448;10.228;2023-06-22T13:44:54;6.40;;;6.00;;
317;SDS011;146;53.448;10.228;2023-06-22T13:47:21;7.17;;;6.50;;
317;SDS011;146;53.448;10.228;2023-06-22T13:49:47;7.83;;;7.17;;
317;SDS011;146;53.448;10.228;2023-06-22T13:52:19;7.63;;;6.93;;
317;SDS011;146;53.448;10.228;2023-06-22T13:54:48;7.33;;;6.63;;
317;SDS011;146;53.448;10.228;2023-06-22T13:57:25;6.33;;;5.93;;
317;SDS011;146;53.448;10.228;2023-06-22T13:59:55;7.40;;;6.90;;
317;SDS011;146;53.448;10.228;2023-06-22T14:02:22;7.10;;;6.57;;
317;SDS011;146;53.448;10.228;2023-06-22T14:04:48;7.13;;;6.63;;
317;SDS011;146;53.448;10.228;2023-06-22T14:07:15;7.37;;;6.90;;
317;SDS011;146;53.448;10.228;2023-06-22T14:09:45;7.17;;;6.67;;
317;SDS011;146;53.448;10.228;2023-06-22T14:12:15;6.83;;;6.37;;
317;SDS011;146;53.448;10.228;2023-06-22T14:14:48;7.43;;;6.83;;
317;SDS011;146;53.448;10.228;2023-06-22T14:17:22;6.83;;;6.43;;
317;SDS011;146;53.448;10.228;2023-06-22T14:19:52;6.57;;;6.07;;
317;SDS011;146;53.448;10.228;2023-06-22T14:22:22;6.73;;;6.23;;
317;SDS011;146;53.448;10.228;2023-06-22T14:24:57;7.23;;;6.77;;
317;SDS011;146;53.448;10.228;2023-06-22T14:27:25;6.43;;;6.00;;
317;SDS011;146;53.448;10.228;2023-06-22T14:29:54;7.63;;;7.10;;
317;SDS011;146;53.448;10.228;2023-06-22T14:32:21;7.23;;;6.73;;
317;SDS011;146;53.448;10.228;2023-06-22T14:34:49;6.97;;;6.47;;
317;SDS011;146;53.448;10.228;2023-06-22T14:37:18;7.10;;;6.50;;
317;SDS011;146;53.448;10.228;2023-06-22T14:39:45;6.60;;;6.10;;
317;SDS011;146;53.448;10.228;2023-06-22T14:42:20;7.30;;;6.80;;
317;SDS011;146;53.448;10.228;2023-06-22T14:44:47;8.17;;;7.60;;
317;SDS011;146;53.448;10.228;2023-06-22T14:47:14;7.10;;;6.63;;
317;SDS011;146;53.448;10.228;2023-06-22T14:49:43;6.13;;;5.80;;
317;SDS011;146;53.448;10.228;2023-06-22T14:52:10;6.50;;;6.10;;
317;SDS011;146;53.448;10.228;2023-06-22T14:54:40;6.43;;;6.03;;
317;SDS011;146;53.448;10.228;2023-06-22T14:57:23;6.40;;;6.00;;
317;SDS011;146;53.448;10.228;2023-06-22T14:59:52;7.40;;;6.90;;
317;SDS011;146;53.448;10.228;2023-06-22T15:02:20;7.27;;;6.60;;
317;SDS011;146;53.448;10.228;2023-06-22T15:04:53;6.57;;;6.07;;
317;SDS011;146;53.448;10.228;2023-06-22T15:07:20;6.37;;;5.97;;
317;SDS011;146;53.448;10.228;2023-06-22T15:09:49;6.93;;;6.43;;
317;SDS011;146;53.448;10.228;2023-06-22T15:12:16;6.83;;;6.43;;
317;SDS011;146;53.448;10.228;2023-06-22T15:14:44;7.00;;;6.47;;
317;SDS011;146;53.448;10.228;2023-06-22T15:17:11;6.30;;;5.90;;
317;SDS011;146;53.448;10.228;2023-06-22T15:19:39;6.33;;;5.93;;
317;SDS011;146;53.448;10.228;2023-06-22T15:22:06;6.90;;;6.50;;
317;SDS011;146;53.448;10.228;2023-06-22T15:24:33;6.00;;;5.60;;
317;SDS011;146;53.448;10.228;2023-06-22T15:27:04;7.23;;;6.73;;
317;SDS011;146;53.448;10.228;2023-06-22T15:29:31;7.00;;;6.50;;
317;SDS011;146;53.448;10.228;2023-06-22T15:32:00;6.23;;;5.90;;
317;SDS011;146;53.448;10.228;2023-06-22T15:34:32;6.53;;;6.03;;
317;SDS011;146;53.448;10.228;2023-06-22T15:40:55;6.97;;;6.53;;
317;SDS011;146;53.448;10.228;2023-06-22T15:43:33;6.83;;;6.43;;
317;SDS011;146;53.448;10.228;2023-06-22T15:45:59;7.40;;;6.87;;
317;SDS011;146;53.448;10.228;2023-06-22T15:48:31;6.73;;;6.33;;
317;SDS011;146;53.448;10.228;2023-06-22T15:51:03;6.67;;;6.07;;
317;SDS011;146;53.448;10.228;2023-06-22T15:53:35;7.03;;;6.53;;